Time;durP1;ratioP1;P1;durP2;ratioP2;P2;SDS_P1;SDS_P2;PMS_P1;PMS_P2;Temp;Humidity;BMP_temperature;BMP_pressure;BME280_temperature;BME280_humidity;BME280_pressure;Samples;Min_cycle;Max_cycle;Signal;HPM_P1;HPM_P2
2022/07/26 00:00:45;;;;;;;6.70;1.50;;;21.30;99.90;;;;;;5050136;28;20460;-73
2022/07/26 00:03:12;;;;;;;2.17;1.50;;;21.10;99.90;;;;;;5053831;28;20451;-74
2022/07/26 00:05:39;;;;;;;1.33;1.13;;;21.10;99.90;;;;;;5049383;28;20482;-73
2022/07/26 00:08:13;;;;;;;2.90;1.47;;;21.10;99.90;;;;;;5054943;28;20455;-73
2022/07/26 00:10:42;;;;;;;2.93;1.47;;;21.10;99.90;;;;;;5041283;28;20463;-73
2022/07/26 00:13:09;;;;;;;1.87;1.70;;;21.10;99.90;;;;;;5045198;28;20550;-73
2022/07/26 00:15:36;;;;;;;4.63;2.23;;;21.10;99.90;;;;;;5041717;28;20489;-73
2022/07/26 00:18:07;;;;;;;2.10;1.73;;;21.00;99.90;;;;;;5049319;28;20463;-72
2022/07/26 00:20:34;;;;;;;1.60;1.47;;;21.10;99.90;;;;;;5045460;28;20553;-72
2022/07/26 00:23:01;;;;;;;8.03;1.60;;;21.00;99.90;;;;;;5044985;28;20462;-73
2022/07/26 00:25:29;;;;;;;1.47;1.30;;;21.10;99.90;;;;;;5052900;28;20481;-73
2022/07/26 00:27:58;;;;;;;3.17;1.80;;;21.10;99.90;;;;;;5046051;28;20467;-72
2022/07/26 00:30:26;;;;;;;2.80;2.07;;;21.00;99.90;;;;;;5044451;28;20685;-72
2022/07/26 00:32:53;;;;;;;2.97;1.70;;;20.90;99.90;;;;;;5041858;28;20905;-72
2022/07/26 00:35:22;;;;;;;1.80;1.60;;;20.90;99.90;;;;;;5046960;28;20483;-73
2022/07/26 00:37:49;;;;;;;2.90;1.43;;;20.70;99.90;;;;;;5049765;28;20460;-72
2022/07/26 00:40:16;;;;;;;2.37;1.90;;;20.70;99.90;;;;;;5042415;28;20508;-73
2022/07/26 00:42:43;;;;;;;1.70;1.40;;;20.80;99.90;;;;;;5042743;28;20546;-72
2022/07/26 00:45:12;;;;;;;2.50;1.60;;;20.60;99.90;;;;;;5035219;28;20490;-73
2022/07/26 00:47:39;;;;;;;2.30;2.10;;;20.50;99.90;;;;;;5042771;28;21127;-72
2022/07/26 00:50:09;;;;;;;3.50;1.93;;;20.60;99.90;;;;;;5035384;28;20567;-72
2022/07/26 00:52:42;;;;;;;2.47;1.50;;;20.50;99.90;;;;;;5039005;28;20466;-71
2022/07/26 00:55:09;;;;;;;9.17;2.60;;;20.50;99.90;;;;;;5043670;28;20470;-72
2022/07/26 00:57:36;;;;;;;5.10;1.90;;;20.40;99.90;;;;;;5045202;28;20546;-72
2022/07/26 01:00:05;;;;;;;4.33;1.50;;;20.50;99.90;;;;;;5044101;28;20461;-72
2022/07/26 01:02:32;;;;;;;3.60;1.70;;;20.40;99.90;;;;;;5048458;28;20463;-72
2022/07/26 01:04:59;;;;;;;2.70;1.77;;;20.40;99.90;;;;;;5046946;28;20569;-72
2022/07/26 01:07:26;;;;;;;3.87;1.80;;;20.40;99.90;;;;;;5057718;28;20455;-73
2022/07/26 01:09:54;;;;;;;2.37;1.50;;;20.30;99.90;;;;;;5054175;28;21126;-72
2022/07/26 01:12:23;;;;;;;2.00;1.33;;;20.30;99.90;;;;;;5055086;28;20459;-72
2022/07/26 01:14:50;;;;;;;8.20;1.77;;;20.30;99.90;;;;;;5044169;28;20516;-72
2022/07/26 01:17:17;;;;;;;2.37;1.50;;;20.30;99.90;;;;;;5064790;28;20466;-73
2022/07/26 01:19:43;;;;;;;1.70;1.30;;;20.20;99.90;;;;;;5061110;28;20462;-73
2022/07/26 01:22:12;;;;;;;2.83;1.60;;;20.10;99.90;;;;;;5071224;28;20490;-72
2022/07/26 01:24:39;;;;;;;5.67;2.23;;;20.20;99.90;;;;;;5063303;28;20574;-73
2022/07/26 01:27:05;;;;;;;3.37;1.83;;;20.30;99.90;;;;;;5056392;28;20463;-73
2022/07/26 01:29:32;;;;;;;3.90;1.60;;;20.30;99.90;;;;;;5048115;28;20590;-72
2022/07/26 01:32:01;;;;;;;3.60;1.43;;;20.30;99.90;;;;;;5053744;28;21007;-72
2022/07/26 01:34:27;;;;;;;2.00;1.57;;;20.30;99.90;;;;;;5056426;28;20575;-72
2022/07/26 01:36:55;;;;;;;7.23;1.97;;;20.40;99.90;;;;;;5052848;28;20856;-72
2022/07/26 01:39:23;;;;;;;2.50;1.73;;;20.50;99.90;;;;;;5054047;28;20455;-72
2022/07/26 01:41:50;;;;;;;7.13;2.20;;;20.40;99.90;;;;;;5051422;28;20472;-73
2022/07/26 01:44:17;;;;;;;3.83;1.80;;;20.40;99.90;;;;;;5050219;28;20600;-74
2022/07/26 01:46:44;;;;;;;4.40;1.90;;;20.40;99.90;;;;;;5049173;28;20555;-73
2022/07/26 01:49:11;;;;;;;2.03;1.77;;;20.50;99.90;;;;;;5049246;28;20483;-72
2022/07/26 01:51:37;;;;;;;2.63;1.70;;;20.50;99.90;;;;;;5044632;28;20566;-72
2022/07/26 01:54:05;;;;;;;3.77;1.90;;;20.50;99.90;;;;;;5052393;28;20983;-72
2022/07/26 01:56:33;;;;;;;5.30;1.73;;;20.60;99.90;;;;;;5043874;28;20462;-73
2022/07/26 01:59:00;;;;;;;4.67;1.90;;;20.70;99.90;;;;;;5047654;28;20451;-72
2022/07/26 02:01:27;;;;;;;1.93;1.47;;;20.70;99.90;;;;;;5048843;28;20475;-73
2022/07/26 02:03:53;;;;;;;3.27;1.73;;;20.60;99.90;;;;;;5053794;28;20459;-72
2022/07/26 02:06:20;;;;;;;4.00;1.50;;;20.60;99.90;;;;;;5051059;28;20550;-72
2022/07/26 02:08:47;;;;;;;2.20;1.60;;;20.60;99.90;;;;;;5051035;28;20461;-72
2022/07/26 02:11:14;;;;;;;4.80;1.93;;;20.60;99.90;;;;;;5053456;28;20455;-72
2022/07/26 02:13:42;;;;;;;3.70;1.80;;;20.40;99.90;;;;;;5044325;28;20569;-72
2022/07/26 02:16:13;;;;;;;4.07;1.73;;;20.50;99.90;;;;;;5041200;28;29619;-72
2022/07/26 02:18:41;;;;;;;3.00;1.53;;;20.60;99.90;;;;;;5048764;28;20461;-72
2022/07/26 02:21:08;;;;;;;3.17;1.50;;;20.70;99.90;;;;;;5052326;28;20546;-72
2022/07/26 02:23:36;;;;;;;6.63;2.73;;;20.50;99.90;;;;;;5051630;28;20462;-72
2022/07/26 02:26:03;;;;;;;2.77;2.10;;;20.50;99.90;;;;;;5047616;28;20518;-73
2022/07/26 02:28:30;;;;;;;5.10;2.03;;;20.50;99.90;;;;;;5047636;28;20464;-73
2022/07/26 02:30:58;;;;;;;1.90;1.47;;;20.60;99.90;;;;;;5042745;28;21089;-72
2022/07/26 02:33:25;;;;;;;4.07;1.43;;;20.50;99.90;;;;;;5052017;28;20468;-72
2022/07/26 02:35:52;;;;;;;9.13;2.17;;;20.50;99.90;;;;;;5046907;28;21099;-72
2022/07/26 02:38:19;;;;;;;2.63;1.47;;;20.40;99.90;;;;;;5049517;28;20465;-72
2022/07/26 02:40:46;;;;;;;5.10;2.23;;;20.50;99.90;;;;;;5039722;28;20657;-72
2022/07/26 02:43:13;;;;;;;8.83;1.73;;;20.40;99.90;;;;;;5049060;28;20835;-72
2022/07/26 02:45:40;;;;;;;4.47;2.23;;;20.30;99.90;;;;;;5045558;28;20494;-72
2022/07/26 02:48:08;;;;;;;5.63;2.23;;;20.40;99.90;;;;;;5040354;28;21098;-72
2022/07/26 02:50:35;;;;;;;8.13;3.23;;;20.30;99.90;;;;;;5042513;28;20494;-72
2022/07/26 02:53:02;;;;;;;4.87;2.00;;;20.30;99.90;;;;;;5052601;28;20466;-72
2022/07/26 02:55:29;;;;;;;17.60;2.43;;;20.30;99.90;;;;;;5056334;28;20591;-72
2022/07/26 02:57:56;;;;;;;4.30;2.30;;;20.40;99.90;;;;;;5050466;28;20487;-72
2022/07/26 03:00:25;;;;;;;8.43;2.07;;;20.40;99.90;;;;;;5052164;28;20534;-72
2022/07/26 03:02:52;;;;;;;8.30;2.57;;;20.50;99.90;;;;;;5052716;28;20471;-72
2022/07/26 03:05:21;;;;;;;5.80;2.23;;;20.50;99.90;;;;;;5052133;28;20918;-72
2022/07/26 03:07:48;;;;;;;4.83;2.53;;;20.40;99.90;;;;;;5042873;28;20482;-72
2022/07/26 03:10:15;;;;;;;2.47;2.07;;;20.40;99.90;;;;;;5056523;28;20478;-72
2022/07/26 03:12:42;;;;;;;4.87;2.13;;;20.40;99.90;;;;;;5046653;28;20464;-72
2022/07/26 03:15:10;;;;;;;4.50;2.10;;;20.50;99.90;;;;;;5045768;28;20573;-72
2022/07/26 03:17:37;;;;;;;4.77;2.27;;;20.60;99.90;;;;;;5045508;28;20561;-72
2022/07/26 03:20:05;;;;;;;5.17;2.57;;;20.60;99.90;;;;;;5050061;28;20537;-72
2022/07/26 03:22:33;;;;;;;2.87;2.37;;;20.50;99.90;;;;;;5049716;28;20466;-72
2022/07/26 03:25:00;;;;;;;3.90;3.50;;;20.40;99.90;;;;;;5047110;28;20485;-72
2022/07/26 03:27:30;;;;;;;7.03;2.23;;;20.40;99.90;;;;;;5049166;28;20447;-72
2022/07/26 03:29:56;;;;;;;2.30;1.83;;;20.50;99.90;;;;;;5053558;28;21032;-73
2022/07/26 03:32:23;;;;;;;2.77;1.90;;;20.50;99.90;;;;;;5052143;28;21007;-73
2022/07/26 03:34:51;;;;;;;4.63;2.10;;;20.30;99.90;;;;;;5053402;28;20510;-73
2022/07/26 03:37:18;;;;;;;4.93;2.67;;;20.20;99.90;;;;;;5043941;28;21176;-73
2022/07/26 03:39:46;;;;;;;3.10;2.30;;;20.30;99.90;;;;;;5044953;28;20448;-73
2022/07/26 03:42:13;;;;;;;4.03;2.07;;;20.20;99.90;;;;;;5052890;28;20847;-73
2022/07/26 03:44:40;;;;;;;9.33;2.07;;;20.10;99.90;;;;;;5049944;28;20490;-74
2022/07/26 03:47:07;;;;;;;5.30;2.10;;;20.10;99.90;;;;;;5045131;28;21091;-74
2022/07/26 03:49:34;;;;;;;3.40;2.10;;;20.10;99.90;;;;;;5051495;28;20473;-73
2022/07/26 03:52:01;;;;;;;4.03;2.50;;;20.20;99.90;;;;;;5052279;28;20455;-74
2022/07/26 03:54:28;;;;;;;5.13;2.63;;;20.20;99.90;;;;;;5051686;28;20493;-73
2022/07/26 03:56:55;;;;;;;9.17;3.10;;;20.10;99.90;;;;;;5045271;28;20455;-72
2022/07/26 03:59:22;;;;;;;2.80;2.53;;;20.00;99.90;;;;;;5055691;28;20493;-72
2022/07/26 04:01:50;;;;;;;4.90;2.70;;;20.10;99.90;;;;;;5056822;28;20459;-73
2022/07/26 04:04:18;;;;;;;4.60;2.20;;;20.10;99.90;;;;;;5050721;28;20488;-73
2022/07/26 04:06:46;;;;;;;4.47;3.10;;;20.10;99.90;;;;;;5053973;28;20833;-73
2022/07/26 04:09:13;;;;;;;7.73;3.60;;;20.10;99.90;;;;;;5042782;28;20521;-73
2022/07/26 04:11:41;;;;;;;6.30;3.60;;;20.00;99.90;;;;;;5051092;28;20562;-72
2022/07/26 04:14:09;;;;;;;5.73;3.17;;;19.80;99.90;;;;;;5052615;28;20467;-73
2022/07/26 04:16:36;;;;;;;7.63;3.70;;;19.70;99.90;;;;;;5056073;28;20937;-72
2022/07/26 04:19:03;;;;;;;3.93;3.13;;;19.30;99.90;;;;;;5057632;28;20815;-72
2022/07/26 04:21:30;;;;;;;4.73;3.10;;;19.30;99.90;;;;;;5059477;28;20601;-72
2022/07/26 04:23:57;;;;;;;4.23;3.87;;;19.10;99.90;;;;;;5059643;28;20479;-72
2022/07/26 04:26:24;;;;;;;6.17;3.97;;;19.10;99.90;;;;;;5055608;28;20459;-72
2022/07/26 04:28:51;;;;;;;9.20;3.47;;;19.20;99.90;;;;;;5057412;28;20455;-72
2022/07/26 04:31:19;;;;;;;6.90;4.20;;;19.20;99.90;;;;;;5051224;28;20899;-72
2022/07/26 04:33:46;;;;;;;7.63;3.87;;;19.20;99.90;;;;;;5057870;28;20435;-72
2022/07/26 04:36:13;;;;;;;6.67;2.93;;;19.20;99.90;;;;;;5052715;28;20538;-72
2022/07/26 04:38:40;;;;;;;3.93;3.57;;;19.30;99.90;;;;;;5053374;28;20875;-72
2022/07/26 04:41:07;;;;;;;14.30;6.07;;;19.10;99.90;;;;;;5053844;28;20860;-72
2022/07/26 04:43:34;;;;;;;8.77;2.90;;;19.10;99.90;;;;;;5052915;28;20460;-72
2022/07/26 04:46:01;;;;;;;7.33;3.53;;;18.90;99.90;;;;;;5051143;22;20492;-76
2022/07/26 04:48:29;;;;;;;3.73;3.13;;;18.80;99.90;;;;;;5024409;28;20465;-76
2022/07/26 04:50:56;;;;;;;4.57;3.53;;;18.90;99.90;;;;;;5023173;28;20457;-76
2022/07/26 04:53:23;;;;;;;9.43;3.70;;;18.80;99.90;;;;;;5028951;28;20531;-77
2022/07/26 04:55:50;;;;;;;5.53;3.60;;;18.70;99.90;;;;;;5029012;28;20496;-77
2022/07/26 04:58:17;;;;;;;5.13;3.70;;;18.70;99.90;;;;;;5029274;28;20451;-76
2022/07/26 05:00:43;;;;;;;4.90;3.20;;;18.70;99.90;;;;;;5025186;28;20476;-78
2022/07/26 05:03:10;;;;;;;4.70;2.77;;;18.70;99.90;;;;;;5030209;28;20453;-77
2022/07/26 05:05:39;;;;;;;7.27;3.40;;;18.70;99.90;;;;;;5028528;28;20484;-77
2022/07/26 05:08:06;;;;;;;5.57;3.40;;;18.80;99.90;;;;;;5025754;28;20463;-77
2022/07/26 05:10:35;;;;;;;5.07;3.90;;;18.80;99.90;;;;;;5028850;28;20887;-76
2022/07/26 05:13:03;;;;;;;14.33;2.63;;;18.90;99.90;;;;;;5025850;28;20465;-77
2022/07/26 05:15:31;;;;;;;7.13;3.13;;;18.90;99.90;;;;;;5029144;28;20472;-76
2022/07/26 05:18:02;;;;;;;3.70;2.90;;;19.10;99.90;;;;;;5022302;28;20456;-76
2022/07/26 05:20:29;;;;;;;3.37;2.80;;;19.00;99.90;;;;;;5030501;28;20515;-76
2022/07/26 05:22:57;;;;;;;5.77;3.37;;;19.10;99.90;;;;;;5025596;28;20471;-76
2022/07/26 05:25:24;;;;;;;6.50;3.90;;;19.10;99.90;;;;;;5028571;28;20461;-76
2022/07/26 05:27:51;;;;;;;3.90;2.83;;;19.20;99.90;;;;;;5028522;28;20450;-76
2022/07/26 05:30:18;;;;;;;7.97;3.70;;;19.30;99.90;;;;;;5026403;28;20452;-75
2022/07/26 05:32:45;;;;;;;6.67;3.30;;;19.20;99.90;;;;;;5021250;28;20460;-76
2022/07/26 05:35:12;;;;;;;3.40;3.10;;;19.30;99.90;;;;;;5030880;28;20475;-77
2022/07/26 05:37:39;;;;;;;4.80;3.40;;;19.30;99.90;;;;;;5030542;28;20491;-76
2022/07/26 05:40:09;;;;;;;6.93;4.17;;;19.30;99.90;;;;;;5020760;28;20480;-77
2022/07/26 05:42:35;;;;;;;10.80;4.07;;;19.30;99.90;;;;;;5025018;28;20480;-76
2022/07/26 05:45:03;;;;;;;11.53;3.03;;;19.40;99.90;;;;;;5027489;28;20472;-76
2022/07/26 05:47:30;;;;;;;4.30;2.70;;;19.30;99.90;;;;;;5021550;28;20477;-76
2022/07/26 05:49:56;;;;;;;6.60;3.83;;;19.30;99.90;;;;;;5027908;28;20444;-76
2022/07/26 05:52:24;;;;;;;4.40;2.83;;;19.20;99.90;;;;;;5028229;28;20456;-76
2022/07/26 05:54:50;;;;;;;3.73;3.00;;;19.10;99.90;;;;;;5030581;28;20503;-76
2022/07/26 05:57:19;;;;;;;3.70;2.70;;;19.10;99.90;;;;;;5028114;28;20479;-76
2022/07/26 05:59:46;;;;;;;11.57;3.40;;;19.30;99.90;;;;;;5028455;28;20544;-76
2022/07/26 06:02:12;;;;;;;6.30;3.10;;;19.40;99.90;;;;;;5031562;28;21212;-76
2022/07/26 06:04:39;;;;;;;7.40;3.40;;;19.40;99.90;;;;;;5030550;28;20551;-76
2022/07/26 06:07:06;;;;;;;6.13;3.60;;;19.50;99.90;;;;;;5029394;28;20468;-76
2022/07/26 06:09:33;;;;;;;4.90;3.23;;;19.40;99.90;;;;;;5030454;28;20480;-76
2022/07/26 06:12:00;;;;;;;4.33;2.97;;;19.40;99.90;;;;;;5029457;28;20460;-76
2022/07/26 06:14:28;;;;;;;3.67;2.20;;;19.60;99.90;;;;;;5023306;28;20906;-76
2022/07/26 06:16:55;;;;;;;8.40;3.47;;;19.70;99.90;;;;;;5026875;28;20961;-76
2022/07/26 06:19:22;;;;;;;5.43;4.27;;;20.00;99.90;;;;;;5029153;28;20456;-76
2022/07/26 06:21:49;;;;;;;13.00;3.13;;;20.40;99.90;;;;;;5025379;28;20480;-76
2022/07/26 06:24:16;;;;;;;5.80;2.60;;;20.70;99.90;;;;;;5026465;28;20551;-76
2022/07/26 06:26:43;;;;;;;5.53;3.20;;;20.70;99.90;;;;;;5024555;28;20578;-77
2022/07/26 06:29:10;;;;;;;7.10;2.93;;;20.60;99.90;;;;;;5026631;28;20445;-77
2022/07/26 06:31:38;;;;;;;6.73;2.73;;;20.60;99.90;;;;;;5029143;28;20954;-76
2022/07/26 06:34:05;;;;;;;3.97;3.60;;;20.90;99.90;;;;;;5027004;28;20895;-77
2022/07/26 06:36:32;;;;;;;3.93;3.10;;;21.10;99.90;;;;;;5026708;28;21296;-76
2022/07/26 06:38:59;;;;;;;4.00;2.97;;;21.40;99.90;;;;;;5022420;28;20449;-76
2022/07/26 06:41:25;;;;;;;7.73;3.60;;;21.20;99.90;;;;;;5019228;28;20477;-77
2022/07/26 06:43:52;;;;;;;5.83;3.90;;;21.40;99.90;;;;;;5025338;28;20467;-77
2022/07/26 06:46:20;;;;;;;7.07;3.73;;;22.00;99.90;;;;;;5021663;28;20585;-80
2022/07/26 06:48:48;;;;;;;7.70;4.90;;;22.60;99.90;;;;;;5028845;28;20460;-79
2022/07/26 06:51:16;;;;;;;11.37;5.77;;;22.80;99.90;;;;;;5028680;28;20481;-77
2022/07/26 06:53:42;;;;;;;8.43;5.57;;;22.90;99.90;;;;;;5026682;28;20447;-77
2022/07/26 06:56:09;;;;;;;8.20;6.13;;;22.90;99.90;;;;;;5024835;28;20469;-77
2022/07/26 06:58:36;;;;;;;7.73;6.23;;;22.90;99.90;;;;;;5021405;28;20457;-77
2022/07/26 07:01:03;;;;;;;8.00;6.63;;;22.80;99.90;;;;;;5024262;28;20476;-77
2022/07/26 07:03:30;;;;;;;12.17;7.53;;;22.50;99.90;;;;;;5025415;28;20541;-77
2022/07/26 07:05:58;;;;;;;9.30;6.30;;;22.50;99.90;;;;;;5024580;28;20473;-77
2022/07/26 07:08:25;;;;;;;17.90;8.03;;;22.40;99.90;;;;;;5017621;28;20466;-77
2022/07/26 07:10:52;;;;;;;12.80;6.50;;;22.30;99.90;;;;;;5025027;28;20445;-77
2022/07/26 07:13:19;;;;;;;9.47;6.77;;;22.10;99.90;;;;;;5025130;28;20484;-78
2022/07/26 07:15:45;;;;;;;11.87;6.67;;;22.00;99.90;;;;;;5024449;28;20568;-77
2022/07/26 07:18:12;;;;;;;9.13;6.17;;;22.10;99.90;;;;;;5027059;28;21174;-77
2022/07/26 07:20:40;;;;;;;9.93;5.30;;;22.10;99.90;;;;;;5027465;28;20483;-78
2022/07/26 07:23:08;;;;;;;12.60;6.00;;;22.20;99.90;;;;;;5031945;28;20445;-78
2022/07/26 07:25:35;;;;;;;10.37;6.30;;;22.30;99.90;;;;;;5027263;28;20467;-78
2022/07/26 07:28:02;;;;;;;14.90;9.03;;;22.80;99.90;;;;;;5022656;28;21013;-76
2022/07/26 07:30:28;;;;;;;14.20;8.87;;;23.30;99.90;;;;;;5022374;28;20448;-77
2022/07/26 07:32:55;;;;;;;14.60;7.10;;;22.80;99.90;;;;;;5029181;28;20460;-78
2022/07/26 07:35:22;;;;;;;10.00;7.80;;;22.60;99.90;;;;;;5026760;28;20461;-77
2022/07/26 07:37:49;;;;;;;11.67;9.80;;;22.30;99.90;;;;;;5026371;28;20793;-78
2022/07/26 07:40:17;;;;;;;11.03;8.83;;;22.00;99.90;;;;;;5020295;28;20840;-77
2022/07/26 07:42:44;;;;;;;7.93;7.17;;;22.30;99.90;;;;;;5023097;28;20454;-78
2022/07/26 07:45:11;;;;;;;12.13;10.00;;;23.00;99.90;;;;;;5026383;28;20484;-77
2022/07/26 07:47:38;;;;;;;15.60;9.33;;;23.50;99.90;;;;;;5023463;28;20441;-78
2022/07/26 07:50:06;;;;;;;23.57;8.90;;;23.70;99.90;;;;;;5024770;28;20464;-77
2022/07/26 07:52:33;;;;;;;17.23;8.20;;;24.10;99.90;;;;;;5024503;28;20795;-77
2022/07/26 07:55:00;;;;;;;14.43;8.57;;;24.50;99.90;;;;;;5024967;28;21013;-77
2022/07/26 07:57:28;;;;;;;9.20;7.13;;;25.30;99.90;;;;;;5025262;28;20524;-77
2022/07/26 07:59:55;;;;;;;9.77;7.23;;;25.60;99.90;;;;;;5026233;28;21116;-77
2022/07/26 08:02:21;;;;;;;7.90;6.57;;;25.90;99.90;;;;;;5027529;28;20540;-77
2022/07/26 08:04:48;;;;;;;10.20;7.80;;;25.70;99.90;;;;;;5024423;28;20469;-77
2022/07/26 08:07:15;;;;;;;10.53;6.90;;;25.80;99.90;;;;;;5016424;28;20477;-78
2022/07/26 08:09:42;;;;;;;8.37;6.80;;;26.00;99.90;;;;;;5024968;28;20883;-78
2022/07/26 08:12:09;;;;;;;10.17;6.30;;;26.70;99.90;;;;;;5028715;28;20437;-78
2022/07/26 08:14:38;;;;;;;6.10;5.50;;;27.40;99.90;;;;;;5025756;28;20454;-78
2022/07/26 08:17:05;;;;;;;8.10;4.97;;;27.40;99.90;;;;;;5025987;28;20448;-78
2022/07/26 08:19:31;;;;;;;5.93;5.33;;;27.00;99.90;;;;;;5025130;28;20445;-78
2022/07/26 08:21:58;;;;;;;9.73;6.53;;;26.10;99.90;;;;;;5027671;28;20993;-78
2022/07/26 08:24:25;;;;;;;14.23;8.10;;;25.40;99.90;;;;;;5028406;28;20455;-78
2022/07/26 08:26:52;;;;;;;16.63;6.90;;;24.40;99.90;;;;;;5024532;28;21208;-79
2022/07/26 08:29:19;;;;;;;9.00;6.10;;;23.90;99.90;;;;;;5025703;28;21020;-78
2022/07/26 08:31:49;;;;;;;6.50;5.57;;;23.90;99.90;;;;;;5021707;28;20507;-78
2022/07/26 08:34:17;;;;;;;7.90;6.13;;;23.90;99.90;;;;;;5027619;28;20442;-78
2022/07/26 08:36:44;;;;;;;8.00;6.17;;;24.10;99.90;;;;;;5023619;28;20480;-78
2022/07/26 08:39:10;;;;;;;8.10;5.57;;;25.70;99.90;;;;;;5010627;28;22453;-78
2022/07/26 08:41:39;;;;;;;5.20;4.70;;;26.70;99.90;;;;;;5024027;28;20564;-78
2022/07/26 08:44:07;;;;;;;7.83;4.53;;;26.50;99.90;;;;;;5022292;28;20453;-79
2022/07/26 08:46:36;;;;;;;4.50;3.20;;;26.10;99.90;;;;;;5025891;28;20478;-78
2022/07/26 08:49:05;;;;;;;11.43;4.00;;;25.60;99.90;;;;;;5026827;28;20460;-77
2022/07/26 08:51:32;;;;;;;4.37;3.53;;;26.10;99.90;;;;;;5025123;28;21169;-78
2022/07/26 08:54:02;;;;;;;9.43;4.40;;;26.50;99.90;;;;;;5028308;28;20455;-78
2022/07/26 08:56:29;;;;;;;3.63;3.10;;;27.10;99.90;;;;;;5024806;28;20473;-78
2022/07/26 08:58:56;;;;;;;3.67;2.80;;;27.50;99.90;;;;;;5023893;28;20984;-78
2022/07/26 09:01:23;;;;;;;4.90;3.30;;;27.80;99.90;;;;;;5028276;28;20510;-79
2022/07/26 09:03:50;;;;;;;4.10;2.77;;;27.90;99.90;;;;;;5028972;28;20473;-78
2022/07/26 09:06:20;;;;;;;3.57;2.43;;;27.80;99.90;;;;;;5022334;28;20467;-78
2022/07/26 09:08:49;;;;;;;9.10;2.60;;;27.20;99.90;;;;;;5027510;28;20546;-77
2022/07/26 09:11:34;;;;;;;5.07;3.10;;;27.40;99.90;;;;;;5020370;28;20458;-78
2022/07/26 09:14:03;;;;;;;3.77;2.20;;;28.50;99.90;;;;;;5026297;28;20462;-77
2022/07/26 09:16:32;;;;;;;3.90;2.13;;;28.20;99.90;;;;;;5022383;28;20882;-77
2022/07/26 09:19:16;;;;;;;6.27;3.37;;;26.30;99.90;;;;;;5030065;28;20441;-77
2022/07/26 09:21:45;;;;;;;2.53;2.00;;;26.20;99.90;;;;;;5030850;28;20490;-76
2022/07/26 09:24:13;;;;;;;6.17;3.27;;;26.50;99.90;;;;;;5025757;28;20457;-77
2022/07/26 09:26:39;;;;;;;7.43;3.40;;;26.30;99.90;;;;;;5029189;28;20471;-78
2022/07/26 09:29:09;;;;;;;6.53;3.00;;;26.80;99.90;;;;;;5028722;28;20445;-78
2022/07/26 09:31:36;;;;;;;6.10;2.50;;;28.00;99.90;;;;;;5023815;28;20501;-78
2022/07/26 09:34:04;;;;;;;7.43;2.13;;;29.20;99.90;;;;;;5029187;28;20537;-78
2022/07/26 09:36:31;;;;;;;2.60;2.40;;;29.50;99.90;;;;;;5027976;28;20478;-77
2022/07/26 09:39:01;;;;;;;7.73;2.10;;;30.00;99.90;;;;;;5023945;28;20447;-78
2022/07/26 09:41:30;;;;;;;4.03;2.67;;;29.20;99.90;;;;;;5029345;28;20478;-78
2022/07/26 09:43:59;;;;;;;2.47;1.83;;;29.10;99.90;;;;;;5026132;28;20448;-78
2022/07/26 09:46:27;;;;;;;4.73;2.20;;;29.20;99.90;;;;;;5030708;28;20924;-78
2022/07/26 09:48:55;;;;;;;1.73;1.60;;;28.60;99.90;;;;;;5032504;28;20450;-79
2022/07/26 09:51:35;;;;;;;5.70;2.30;;;28.20;99.90;;;;;;5030591;28;20508;-77
2022/07/26 09:54:04;;;;;;;2.33;1.90;;;27.90;99.90;;;;;;5032143;28;20548;-76
2022/07/26 09:56:44;;;;;;;3.83;2.43;;;28.40;99.90;;;;;;5031917;28;20470;-77
2022/07/26 09:59:12;;;;;;;4.20;3.60;;;29.10;99.90;;;;;;5023467;28;20466;-77
2022/07/26 10:01:38;;;;;;;2.83;2.00;;;29.10;99.90;;;;;;5027366;28;20510;-77
2022/07/26 10:04:06;;;;;;;3.40;2.80;;;29.30;99.90;;;;;;5028697;28;22047;-77
2022/07/26 10:06:33;;;;;;;3.57;3.07;;;29.20;99.90;;;;;;5031896;28;20506;-76
2022/07/26 10:09:01;;;;;;;4.27;2.53;;;28.70;99.90;;;;;;5031197;28;20466;-77
2022/07/26 10:11:35;;;;;;;3.67;2.73;;;27.90;99.90;;;;;;5030803;28;20443;-78
2022/07/26 10:14:37;;;;;;;2.37;2.07;;;27.20;99.90;;;;;;5020867;28;21092;-77
2022/07/26 10:17:46;;;;;;;2.60;1.50;;;26.10;99.90;;;;;;5022609;28;20462;-79
2022/07/26 10:20:38;;;;;;;2.73;1.30;;;25.10;99.90;;;;;;5027140;28;20451;-77
2022/07/26 10:23:25;;;;;;;2.07;1.50;;;24.80;99.90;;;;;;5021873;28;20503;-77
2022/07/26 10:25:52;;;;;;;2.27;1.23;;;24.20;99.90;;;;;;5023871;28;20485;-78
2022/07/26 10:28:28;;;;;;;2.97;1.60;;;23.70;99.90;;;;;;5027331;28;20532;-78
2022/07/26 10:31:29;;;;;;;1.40;1.00;;;23.70;99.90;;;;;;5027940;28;20802;-78
2022/07/26 10:33:57;;;;;;;1.50;1.30;;;23.40;99.90;;;;;;5031085;28;20460;-78
2022/07/26 10:36:27;;;;;;;4.20;1.53;;;23.10;99.90;;;;;;5026289;28;20456;-78
2022/07/26 10:39:12;;;;;;;1.50;1.33;;;23.20;99.90;;;;;;5025671;28;21147;-79
2022/07/26 10:41:42;;;;;;;2.80;1.20;;;23.10;99.90;;;;;;5023781;28;21125;-79
2022/07/26 10:44:19;;;;;;;3.70;1.73;;;23.10;99.90;;;;;;5030851;28;20493;-77
2022/07/26 10:47:10;;;;;;;1.90;1.27;;;23.10;99.90;;;;;;5041057;23;20648;-72
2022/07/26 10:49:39;;;;;;;6.50;2.03;;;23.00;99.90;;;;;;5037990;28;20542;-72
2022/07/26 10:52:11;;;;;;;2.50;1.43;;;23.00;99.90;;;;;;5042759;28;20444;-71
2022/07/26 10:55:15;;;;;;;2.20;1.70;;;22.60;99.90;;;;;;5042904;28;20455;-71
2022/07/26 10:57:44;;;;;;;3.40;1.43;;;22.30;99.90;;;;;;5023899;28;20473;-72
2022/07/26 11:00:23;;;;;;;2.03;1.20;;;22.50;99.90;;;;;;5021918;28;20907;-72
2022/07/26 11:02:55;;;;;;;1.70;1.60;;;22.90;99.90;;;;;;5025358;28;20469;-70
2022/07/26 11:05:27;;;;;;;1.50;1.30;;;23.20;99.90;;;;;;5023217;28;20438;-71
2022/07/26 11:08:00;;;;;;;2.07;1.60;;;23.10;99.90;;;;;;5022417;28;20452;-71
2022/07/26 11:10:30;;;;;;;1.57;1.47;;;22.90;99.90;;;;;;5021984;28;20692;-71
2022/07/26 11:13:06;;;;;;;1.83;1.60;;;22.90;99.90;;;;;;5021678;28;20954;-71
2022/07/26 11:15:35;;;;;;;3.27;1.23;;;23.00;99.90;;;;;;5024118;28;20443;-72
2022/07/26 11:18:13;;;;;;;2.20;1.20;;;22.80;99.90;;;;;;5019276;28;20936;-72
2022/07/26 11:20:42;;;;;;;1.63;1.43;;;22.40;99.90;;;;;;5021489;28;20464;-71
2022/07/26 11:23:26;;;;;;;1.53;1.43;;;22.50;99.90;;;;;;5022262;28;20858;-71
2022/07/26 11:26:12;;;;;;;2.53;1.80;;;22.40;99.90;;;;;;5019032;28;20473;-71
2022/07/26 11:28:51;;;;;;;11.17;2.10;;;22.80;99.90;;;;;;5016124;28;20553;-71
2022/07/26 11:31:22;;;;;;;4.70;2.70;;;23.40;99.90;;;;;;5021181;28;20449;-72
2022/07/26 11:33:50;;;;;;;6.30;3.00;;;24.30;99.90;;;;;;5022668;28;20441;-71
2022/07/26 11:36:19;;;;;;;2.30;1.87;;;24.60;99.90;;;;;;5018067;28;20481;-71
2022/07/26 11:38:47;;;;;;;3.30;2.27;;;24.50;99.90;;;;;;5019012;28;20440;-71
2022/07/26 11:41:15;;;;;;;5.10;1.50;;;24.30;99.90;;;;;;5024857;28;20456;-72
2022/07/26 11:43:42;;;;;;;1.57;1.30;;;23.50;99.90;;;;;;5022187;28;20560;-71
2022/07/26 11:46:09;;;;;;;1.70;1.00;;;23.50;99.90;;;;;;5018497;28;20485;-72
2022/07/26 11:48:44;;;;;;;2.33;1.10;;;23.40;99.90;;;;;;5022415;28;20476;-71
2022/07/26 11:51:12;;;;;;;2.03;0.80;;;23.20;99.90;;;;;;5021638;28;20452;-71
2022/07/26 11:53:39;;;;;;;1.20;0.87;;;23.20;99.90;;;;;;5018040;28;20836;-71
2022/07/26 11:56:18;;;;;;;2.73;1.07;;;23.10;99.90;;;;;;5022221;28;20473;-71
2022/07/26 11:58:46;;;;;;;1.80;1.70;;;23.40;99.90;;;;;;5021905;28;20527;-71
2022/07/26 12:01:15;;;;;;;1.20;0.90;;;23.80;99.90;;;;;;5017094;28;20465;-72
2022/07/26 12:03:45;;;;;;;1.20;0.80;;;24.70;99.90;;;;;;5019510;28;20792;-71
2022/07/26 12:06:15;;;;;;;1.20;0.80;;;25.90;99.90;;;;;;5021107;28;20496;-72
2022/07/26 12:08:43;;;;;;;1.40;0.90;;;26.10;99.90;;;;;;5023482;28;21177;-71
2022/07/26 12:11:10;;;;;;;6.03;0.97;;;25.80;99.90;;;;;;5017953;28;20465;-71
2022/07/26 12:13:55;;;;;;;1.10;0.70;;;25.50;99.90;;;;;;5024835;28;20456;-71
2022/07/26 12:16:49;;;;;;;2.23;0.80;;;26.10;99.90;;;;;;5016951;28;20461;-71
2022/07/26 12:19:29;;;;;;;1.67;0.77;;;26.40;99.90;;;;;;4985301;28;20611;-72
2022/07/26 12:21:59;;;;;;;1.10;0.83;;;27.10;99.90;;;;;;5017011;28;20515;-71
2022/07/26 12:24:38;;;;;;;1.20;0.80;;;28.60;99.90;;;;;;5019313;28;20441;-71
2022/07/26 12:27:07;;;;;;;1.90;1.40;;;28.30;99.90;;;;;;5022862;28;20986;-71
2022/07/26 12:29:35;;;;;;;1.20;0.90;;;28.80;99.90;;;;;;5020991;28;20971;-71
2022/07/26 12:32:04;;;;;;;1.17;0.80;;;29.00;99.90;;;;;;5021885;28;20478;-71
2022/07/26 12:34:33;;;;;;;2.17;1.27;;;29.80;99.90;;;;;;5023166;28;20448;-71
2022/07/26 12:37:15;;;;;;;1.33;0.80;;;29.60;99.90;;;;;;5019341;28;20479;-71
2022/07/26 12:39:58;;;;;;;1.40;0.80;;;28.90;99.90;;;;;;5023101;28;20458;-72
2022/07/26 12:42:28;;;;;;;1.17;0.90;;;28.80;99.90;;;;;;5019171;28;20878;-72
2022/07/26 12:44:56;;;;;;;1.10;0.80;;;29.20;99.90;;;;;;5023735;28;20464;-72
2022/07/26 12:47:23;;;;;;;1.50;0.80;;;29.60;99.90;;;;;;5023043;28;20470;-72
2022/07/26 12:49:52;;;;;;;1.70;0.87;;;29.60;99.90;;;;;;5019972;28;20803;-72
2022/07/26 12:52:20;;;;;;;1.17;0.87;;;29.90;99.90;;;;;;5019856;28;20452;-72
2022/07/26 12:54:49;;;;;;;1.50;0.90;;;30.80;99.90;;;;;;5022945;28;20466;-72